createdAt,value
2023-02-07T00:01:46.638Z,64.10
2023-02-07T00:04:15.288Z,66.40
2023-02-07T00:06:43.957Z,66.63
2023-02-07T00:09:13.786Z,66.20
2023-02-07T00:11:42.550Z,64.22
2023-02-07T00:14:13.457Z,60.47
2023-02-07T00:16:43.000Z,59.88
2023-02-07T00:19:12.112Z,63.05
2023-02-07T00:21:40.794Z,63.78
2023-02-07T00:24:09.683Z,61.35
2023-02-07T00:26:38.418Z,66.25
2023-02-07T00:29:07.479Z,78.43
2023-02-07T00:31:37.547Z,79.47
2023-02-07T00:34:09.412Z,82.60
2023-02-07T00:36:39.283Z,81.50
2023-02-07T00:39:13.114Z,64.05
2023-02-07T00:41:43.053Z,72.80
2023-02-07T00:44:12.119Z,74.55
2023-02-07T00:46:41.508Z,73.47
2023-02-07T00:49:10.175Z,72.72
2023-02-07T00:51:39.155Z,72.90
2023-02-07T00:54:08.814Z,74.63
2023-02-07T00:56:37.582Z,72.63
2023-02-07T00:59:06.401Z,79.05
2023-02-07T01:01:35.378Z,71.97
2023-02-07T01:04:04.944Z,69.10
2023-02-07T01:06:36.866Z,71.85
2023-02-07T01:09:07.307Z,73.87
2023-02-07T01:11:36.252Z,85.00
2023-02-07T01:14:05.163Z,78.53
2023-02-07T01:16:36.896Z,75.78
2023-02-07T01:19:10.003Z,78.78
2023-02-07T01:21:38.861Z,74.57
2023-02-07T01:24:08.080Z,76.03
2023-02-07T01:26:39.340Z,75.25
2023-02-07T01:29:08.516Z,74.97
2023-02-07T01:31:37.383Z,75.35
2023-02-07T01:34:06.258Z,76.03
2023-02-07T01:36:35.148Z,76.15
2023-02-07T01:39:05.208Z,74.97
2023-02-07T01:41:34.100Z,72.97
2023-02-07T01:44:07.295Z,71.95
2023-02-07T01:46:37.632Z,72.90
2023-02-07T01:49:11.821Z,74.40
2023-02-07T01:51:48.137Z,70.82
2023-02-07T01:54:18.440Z,73.38
2023-02-07T01:56:53.597Z,72.95
2023-02-07T01:59:23.970Z,71.85
2023-02-07T02:01:54.213Z,70.35
2023-02-07T02:04:23.734Z,73.38
2023-02-07T02:06:53.359Z,72.80
2023-02-07T02:54:32.853Z,74.15
2023-02-07T02:57:23.322Z,76.60
2023-02-07T03:00:05.418Z,77.03
2023-02-07T03:02:57.956Z,75.47
2023-02-07T03:05:29.844Z,71.93
2023-02-07T03:08:22.565Z,72.13
2023-02-07T03:11:13.023Z,73.30
2023-02-07T03:14:03.879Z,77.22
2023-02-07T03:16:41.052Z,76.10
2023-02-07T03:19:26.683Z,73.38
2023-02-07T03:22:00.812Z,74.57
2023-02-07T03:24:34.874Z,75.10
2023-02-07T03:27:08.457Z,76.10
2023-02-07T03:29:40.090Z,72.30
2023-02-07T03:32:10.755Z,76.38
2023-02-07T03:34:44.648Z,78.13
2023-02-07T03:37:19.720Z,73.32
2023-02-07T03:39:49.350Z,76.68
2023-02-07T03:42:28.861Z,75.28
2023-02-07T03:45:00.287Z,71.85
2023-02-07T03:47:29.712Z,77.72
2023-02-07T03:49:58.617Z,76.97
2023-02-07T03:52:27.368Z,74.90
2023-02-07T03:54:56.069Z,75.45
2023-02-07T03:57:24.879Z,81.30
2023-02-07T03:59:54.478Z,76.88
2023-02-07T04:02:23.121Z,75.80
2023-02-07T04:04:52.049Z,73.78
2023-02-07T04:07:22.554Z,72.13
2023-02-07T04:09:51.197Z,71.50
2023-02-07T04:12:20.044Z,76.22
2023-02-07T04:14:48.825Z,70.75
2023-02-07T04:17:17.556Z,69.93
2023-02-07T04:19:46.385Z,70.53
2023-02-07T04:22:15.055Z,71.50
2023-02-07T04:24:43.694Z,69.15
2023-02-07T04:27:12.469Z,66.65
2023-02-07T04:29:41.172Z,69.70
2023-02-07T04:32:09.840Z,68.90
2023-02-07T04:34:38.615Z,68.82
2023-02-07T04:37:07.667Z,70.30
2023-02-07T04:39:36.553Z,68.80
2023-02-07T04:42:07.835Z,67.78
2023-02-07T04:44:36.465Z,66.22
2023-02-07T04:47:05.506Z,62.25
2023-02-07T04:49:34.711Z,67.38
2023-02-07T04:52:03.703Z,66.95
2023-02-07T04:54:32.430Z,66.22
2023-02-07T04:57:01.181Z,64.72
2023-02-07T04:59:30.085Z,63.45
2023-02-07T05:01:58.775Z,63.50
2023-02-07T05:04:27.928Z,63.03
2023-02-07T05:07:00.610Z,62.85
2023-02-07T05:11:58.758Z,57.72
2023-02-07T05:14:27.559Z,61.72
2023-02-07T05:16:56.292Z,60.50
2023-02-07T05:19:25.184Z,58.10
2023-02-07T05:21:53.945Z,56.33
2023-02-07T05:24:25.646Z,55.67
2023-02-07T05:26:54.479Z,57.42
2023-02-07T05:29:23.202Z,56.47
2023-02-07T05:32:12.191Z,52.78
2023-02-07T05:34:41.062Z,50.85
2023-02-07T05:37:10.017Z,50.10
2023-02-07T05:39:38.764Z,52.42
2023-02-07T05:42:07.763Z,54.38
2023-02-07T05:44:36.469Z,53.55
2023-02-07T05:47:05.142Z,53.72
2023-02-07T05:49:33.914Z,50.00
2023-02-07T05:52:03.503Z,50.10
2023-02-07T05:54:32.562Z,51.70
2023-02-07T05:57:01.776Z,50.22
2023-02-07T05:59:31.308Z,48.85
2023-02-07T06:02:00.118Z,49.30
2023-02-07T06:04:29.194Z,50.15
2023-02-07T06:07:00.715Z,51.45
2023-02-07T06:09:29.605Z,48.55
2023-02-07T06:11:58.843Z,48.22
2023-02-07T06:14:28.800Z,46.38
2023-02-07T06:16:57.604Z,48.47
2023-02-07T06:19:26.316Z,49.10
2023-02-07T06:21:55.142Z,47.38
2023-02-07T06:24:24.079Z,49.58
2023-02-07T06:26:52.961Z,50.63
2023-02-07T06:29:21.844Z,49.90
2023-02-07T06:31:50.629Z,47.75
2023-02-07T06:34:19.442Z,47.22
2023-02-07T06:36:48.853Z,44.42
2023-02-07T06:39:20.617Z,44.15
2023-02-07T06:41:49.575Z,43.63
2023-02-07T06:44:33.912Z,44.15
2023-02-07T06:47:02.765Z,44.67
2023-02-07T06:49:32.308Z,44.28
2023-02-07T06:52:01.155Z,43.85
2023-02-07T06:54:29.848Z,43.03
2023-02-07T06:57:26.974Z,44.05
2023-02-07T07:00:00.364Z,42.17
2023-02-07T07:02:29.857Z,45.05
2023-02-07T07:04:58.571Z,42.90
2023-02-07T07:07:27.367Z,41.47
2023-02-07T07:09:56.113Z,40.40
2023-02-07T07:12:24.726Z,41.30
2023-02-07T07:15:12.938Z,38.65
2023-02-07T07:17:41.754Z,37.80
2023-02-07T07:20:11.260Z,37.25
2023-02-07T07:22:57.992Z,37.08
2023-02-07T07:25:29.229Z,37.00
2023-02-07T07:27:58.724Z,45.20
2023-02-07T07:30:27.852Z,38.15
2023-02-07T07:32:57.113Z,36.40
2023-02-07T07:35:26.545Z,36.58
2023-02-07T07:37:55.186Z,36.15
2023-02-07T07:40:23.900Z,34.20
2023-02-07T07:42:53.692Z,34.75
2023-02-07T07:45:22.486Z,61.95
2023-02-07T07:47:51.241Z,35.67
2023-02-07T07:50:19.997Z,36.15
2023-02-07T07:52:48.649Z,35.13
2023-02-07T07:55:17.473Z,36.75
2023-02-07T07:57:46.278Z,35.05
2023-02-07T08:00:15.964Z,39.85
2023-02-07T08:02:45.134Z,38.58
2023-02-07T08:05:14.040Z,35.97
2023-02-07T08:07:42.834Z,34.97
2023-02-07T08:10:11.718Z,37.38
2023-02-07T08:12:40.723Z,37.80
2023-02-07T08:15:28.180Z,38.05
2023-02-07T08:17:58.078Z,38.60
2023-02-07T08:20:27.172Z,37.17
2023-02-07T08:22:55.876Z,35.67
2023-02-07T08:25:24.586Z,35.63
2023-02-07T08:27:54.202Z,34.67
2023-02-07T08:30:24.847Z,36.80
2023-02-07T08:32:53.738Z,34.15
2023-02-07T08:35:22.823Z,35.78
2023-02-07T08:38:12.673Z,32.10
2023-02-07T08:40:42.104Z,32.60
2023-02-07T08:43:13.516Z,32.83
2023-02-07T08:45:49.992Z,34.00
2023-02-07T08:48:21.549Z,33.10
2023-02-07T08:50:50.224Z,32.53
2023-02-07T08:53:19.537Z,34.15
2023-02-07T08:55:49.388Z,32.67
2023-02-07T08:58:20.058Z,33.55
2023-02-07T09:00:48.783Z,34.40
2023-02-07T09:03:17.537Z,36.35
2023-02-07T09:05:46.295Z,34.58
2023-02-07T09:08:15.220Z,33.15
2023-02-07T09:10:46.033Z,31.55
2023-02-07T09:13:16.268Z,32.95
2023-02-07T09:15:45.061Z,32.13
2023-02-07T09:18:13.917Z,33.05
2023-02-07T09:20:42.594Z,31.25
2023-02-07T09:23:26.552Z,29.88
2023-02-07T09:25:55.788Z,32.33
2023-02-07T09:28:24.636Z,31.65
2023-02-07T09:30:53.926Z,32.72
2023-02-07T09:33:25.395Z,32.50
2023-02-07T09:35:55.663Z,31.33
2023-02-07T09:38:27.330Z,30.80
2023-02-07T09:40:57.395Z,35.70
2023-02-07T09:43:46.371Z,30.48
2023-02-07T09:46:26.578Z,29.25
2023-02-07T09:49:14.598Z,30.13
2023-02-07T09:51:45.513Z,30.05
2023-02-07T09:54:24.932Z,31.73
2023-02-07T09:56:59.400Z,31.95
2023-02-07T09:59:35.288Z,31.88
2023-02-07T10:02:19.850Z,30.90
2023-02-07T10:04:52.335Z,30.70
2023-02-07T10:07:21.301Z,32.33
2023-02-07T10:09:50.510Z,31.63
2023-02-07T10:12:30.795Z,30.85
2023-02-07T10:15:20.917Z,31.60
2023-02-07T10:18:08.314Z,32.17
2023-02-07T10:20:49.460Z,33.85
2023-02-07T10:23:39.874Z,34.75
2023-02-07T10:26:17.107Z,34.28
2023-02-07T10:29:24.966Z,33.05
2023-02-07T10:31:56.222Z,32.30
2023-02-07T10:34:29.079Z,32.53
2023-02-07T10:37:00.488Z,34.25
2023-02-07T10:39:39.964Z,35.03
2023-02-07T10:42:16.758Z,33.28
2023-02-07T10:44:45.581Z,32.95
2023-02-07T10:47:19.042Z,35.08
2023-02-07T10:49:52.102Z,44.15
2023-02-07T10:52:44.707Z,35.47
2023-02-07T10:55:18.678Z,33.72
2023-02-07T10:58:08.606Z,33.03
2023-02-07T11:00:48.812Z,34.78
2023-02-07T11:03:22.576Z,34.53
2023-02-07T11:05:57.981Z,35.42
2023-02-07T11:08:30.954Z,34.45
2023-02-07T11:11:02.172Z,36.60
2023-02-07T11:13:33.638Z,36.90
2023-02-07T11:16:08.189Z,35.22
2023-02-07T11:18:45.004Z,36.15
2023-02-07T11:21:35.515Z,41.97
2023-02-07T11:24:10.172Z,36.65
2023-02-07T11:26:54.525Z,37.13
2023-02-07T11:29:26.939Z,39.10
2023-02-07T11:32:00.743Z,41.17
2023-02-07T11:34:30.358Z,42.17
2023-02-07T11:37:20.122Z,46.47
2023-02-07T11:39:51.298Z,47.63
2023-02-07T11:42:23.296Z,48.03
2023-02-07T11:44:54.180Z,50.97
2023-02-07T11:47:33.653Z,49.97
2023-02-07T11:50:06.011Z,55.03
2023-02-07T11:52:41.022Z,52.58
2023-02-07T11:55:19.708Z,57.65
2023-02-07T11:57:48.567Z,77.53
2023-02-07T12:00:20.318Z,89.35
2023-02-07T12:03:03.073Z,92.88
2023-02-07T12:05:38.566Z,97.13
2023-02-07T12:08:16.285Z,92.22
2023-02-07T12:10:50.901Z,94.32
2023-02-07T12:13:30.439Z,96.05
2023-02-07T12:16:07.148Z,81.13
2023-02-07T12:18:42.922Z,84.00
2023-02-07T12:21:51.317Z,81.18
2023-02-07T12:24:34.675Z,78.43
2023-02-07T12:27:25.964Z,74.72
2023-02-07T12:30:30.654Z,66.95
2023-02-07T12:33:12.074Z,67.43
2023-02-07T12:36:12.605Z,67.65
2023-02-07T12:38:42.278Z,62.63
2023-02-07T12:41:18.284Z,70.90
2023-02-07T12:44:04.290Z,65.63
2023-02-07T12:46:48.044Z,63.70
2023-02-07T12:49:40.742Z,57.90
2023-02-07T12:52:14.139Z,56.78
2023-02-07T12:55:11.666Z,55.35
2023-02-07T12:57:47.381Z,55.20
2023-02-07T13:00:49.885Z,53.75
2023-02-07T13:03:25.087Z,55.97
2023-02-07T13:05:54.826Z,54.90
2023-02-07T13:08:27.924Z,51.60
2023-02-07T13:11:23.020Z,50.20
2023-02-07T13:13:58.464Z,50.65
2023-02-07T13:17:00.588Z,49.88
2023-02-07T13:19:54.313Z,49.63
2023-02-07T13:22:27.922Z,48.05
2023-02-07T13:24:58.162Z,46.90
2023-02-07T13:27:30.042Z,46.38
2023-02-07T13:30:01.868Z,46.37
2023-02-07T13:32:30.608Z,47.33
2023-02-07T13:35:01.287Z,44.70
2023-02-07T13:37:36.571Z,44.50
2023-02-07T13:40:29.495Z,45.80
2023-02-07T13:43:10.382Z,44.65
2023-02-07T13:45:58.067Z,45.67
2023-02-07T13:48:36.107Z,44.17
2023-02-07T13:51:32.990Z,44.08
2023-02-07T13:54:25.329Z,46.40
2023-02-07T13:57:22.539Z,42.57
2023-02-07T14:00:29.809Z,42.40
2023-02-07T14:03:02.364Z,42.83
2023-02-07T14:05:39.232Z,42.22
2023-02-07T14:08:25.978Z,43.13
2023-02-07T14:10:56.949Z,41.88
2023-02-07T14:13:26.658Z,42.17
2023-02-07T14:15:58.453Z,42.83
2023-02-07T14:18:46.621Z,43.50
2023-02-07T14:21:26.260Z,42.75
2023-02-07T14:24:15.470Z,40.55
2023-02-07T14:26:58.216Z,41.75
2023-02-07T14:29:29.569Z,43.30
2023-02-07T14:32:19.206Z,43.00
2023-02-07T14:35:23.509Z,41.72
2023-02-07T14:38:02.458Z,42.25
2023-02-07T14:40:47.756Z,41.72
2023-02-07T14:43:19.269Z,41.42
2023-02-07T14:46:11.658Z,39.65
2023-02-07T14:48:49.814Z,39.80
2023-02-07T14:51:32.528Z,38.25
2023-02-07T14:54:27.519Z,39.67
2023-02-07T14:57:16.702Z,40.42
2023-02-07T15:00:03.985Z,40.35
2023-02-07T15:02:42.210Z,40.70
2023-02-07T15:05:32.267Z,40.67
2023-02-07T15:08:05.306Z,38.45
2023-02-07T15:10:38.095Z,40.42
2023-02-07T15:13:18.125Z,39.63
2023-02-07T15:15:53.525Z,39.15
2023-02-07T15:18:25.841Z,40.33
2023-02-07T15:20:58.721Z,41.30
2023-02-07T15:23:32.334Z,39.97
2023-02-07T15:26:08.698Z,42.47
2023-02-07T15:28:38.258Z,41.80
2023-02-07T15:31:18.649Z,41.67
2023-02-07T15:33:49.986Z,45.17
2023-02-07T15:36:40.908Z,43.85
2023-02-07T15:39:24.594Z,42.58
2023-02-07T15:41:55.692Z,42.72
2023-02-07T15:44:28.957Z,44.50
2023-02-07T15:47:01.781Z,42.60
2023-02-07T15:49:37.135Z,40.67
2023-02-07T15:52:16.016Z,39.83
2023-02-07T15:54:49.543Z,41.60
2023-02-07T15:57:28.686Z,42.60
2023-02-07T16:00:02.575Z,41.63
2023-02-07T16:02:34.493Z,39.78
2023-02-07T16:05:17.722Z,41.50
2023-02-07T16:07:49.664Z,38.95
2023-02-07T16:10:27.351Z,40.97
2023-02-07T16:13:04.298Z,39.08
2023-02-07T16:15:36.154Z,38.45
2023-02-07T16:18:06.954Z,41.97
2023-02-07T16:20:38.417Z,42.95
2023-02-07T16:23:10.810Z,42.08
2023-02-07T16:25:39.672Z,40.55
2023-02-07T16:28:12.521Z,39.65
2023-02-07T16:30:42.501Z,40.45
2023-02-07T16:33:15.368Z,39.88
2023-02-07T16:38:12.390Z,41.17
2023-02-07T16:40:41.521Z,40.78
2023-02-07T16:43:26.349Z,42.30
2023-02-07T16:45:55.528Z,40.60
2023-02-07T16:48:24.206Z,42.00
2023-02-07T16:50:52.865Z,39.50
2023-02-07T16:53:21.547Z,42.10
2023-02-07T16:55:50.247Z,39.70
2023-02-07T16:58:35.210Z,40.20
2023-02-07T17:01:20.525Z,40.13
2023-02-07T17:03:49.942Z,37.30
2023-02-07T17:06:21.625Z,36.80
2023-02-07T17:08:51.097Z,36.30
2023-02-07T17:11:26.239Z,36.10
2023-02-07T17:13:57.104Z,35.53
2023-02-07T17:16:28.670Z,35.15
2023-02-07T17:18:57.520Z,34.58
2023-02-07T17:21:26.262Z,33.33
2023-02-07T17:23:55.035Z,32.92
2023-02-07T17:26:27.491Z,31.17
2023-02-07T17:28:57.124Z,29.17
2023-02-07T17:31:26.346Z,31.10
2023-02-07T17:33:55.266Z,28.27
2023-02-07T17:36:24.447Z,28.80
2023-02-07T17:38:54.208Z,29.17
2023-02-07T17:41:23.769Z,29.45
2023-02-07T17:43:52.462Z,28.15
2023-02-07T17:46:25.025Z,28.95
2023-02-07T17:48:54.761Z,28.45
2023-02-07T17:51:25.701Z,29.23
2023-02-07T17:53:55.163Z,27.95
2023-02-07T17:56:27.915Z,28.60
2023-02-07T18:01:25.995Z,28.02
2023-02-07T18:03:56.481Z,27.15
2023-02-07T18:06:27.660Z,26.52
2023-02-07T18:08:59.479Z,25.40
2023-02-07T18:11:29.700Z,23.77
2023-02-07T18:13:59.206Z,23.25
2023-02-07T18:16:28.478Z,23.75
2023-02-07T18:18:58.950Z,22.90
2023-02-07T18:21:28.791Z,21.77
2023-02-07T18:23:58.086Z,20.40
2023-02-07T18:26:26.773Z,20.60
2023-02-07T18:28:55.571Z,19.50
2023-02-07T18:31:26.100Z,20.45
2023-02-07T18:33:55.821Z,20.50
2023-02-07T18:36:27.671Z,20.63
2023-02-07T18:38:59.279Z,20.97
2023-02-07T18:41:27.968Z,21.83
2023-02-07T18:43:56.649Z,21.38
2023-02-07T18:46:25.416Z,19.83
2023-02-07T18:48:58.188Z,20.50
2023-02-07T18:51:27.494Z,20.50
2023-02-07T18:53:56.301Z,21.35
2023-02-07T18:56:28.264Z,19.98
2023-02-07T18:58:58.018Z,20.33
2023-02-07T19:01:28.868Z,21.17
2023-02-07T19:03:59.590Z,19.45
2023-02-07T19:06:32.082Z,22.02
2023-02-07T19:09:01.328Z,22.17
2023-02-07T19:11:30.080Z,21.90
2023-02-07T19:13:59.651Z,21.65
2023-02-07T19:16:28.780Z,20.50
2023-02-07T19:19:00.047Z,22.23
2023-02-07T19:21:28.778Z,22.50
2023-02-07T19:23:58.954Z,22.63
2023-02-07T19:26:28.016Z,21.80
2023-02-07T19:28:58.577Z,22.40
2023-02-07T19:31:30.341Z,22.73
2023-02-07T19:33:59.962Z,22.13
2023-02-07T19:36:31.225Z,22.08
2023-02-07T19:39:00.170Z,21.95
2023-02-07T19:41:30.532Z,22.33
2023-02-07T19:43:59.439Z,23.95
2023-02-07T19:46:28.691Z,22.50
2023-02-07T19:48:58.074Z,23.98
2023-02-07T19:51:30.185Z,23.10
2023-02-07T19:54:00.659Z,21.13
2023-02-07T19:56:34.234Z,22.42
2023-02-07T19:59:05.361Z,20.85
2023-02-07T20:01:35.493Z,19.38
2023-02-07T20:04:04.328Z,20.80
2023-02-07T20:06:35.555Z,20.08
2023-02-07T20:09:06.914Z,19.65
2023-02-07T20:11:36.404Z,19.88
2023-02-07T20:14:05.285Z,20.45
2023-02-07T20:16:36.902Z,19.45
2023-02-07T20:19:07.975Z,20.70
2023-02-07T20:21:38.034Z,20.70
2023-02-07T20:24:07.063Z,19.38
2023-02-07T20:26:40.365Z,19.52
2023-02-07T20:29:12.789Z,19.42
2023-02-07T20:31:41.863Z,17.48
2023-02-07T20:34:13.316Z,18.17
2023-02-07T20:36:43.395Z,17.25
2023-02-07T20:39:16.280Z,17.02
2023-02-07T20:41:47.150Z,17.80
2023-02-07T20:44:20.726Z,16.95
2023-02-07T20:46:50.531Z,16.65
2023-02-07T20:49:26.212Z,15.80
2023-02-07T20:51:57.306Z,16.15
2023-02-07T20:54:28.247Z,15.98
2023-02-07T20:56:58.059Z,16.27
2023-02-07T20:59:29.267Z,15.77
2023-02-07T21:01:58.582Z,16.00
2023-02-07T21:04:29.542Z,15.68
2023-02-07T21:06:58.302Z,16.15
2023-02-07T21:09:27.092Z,16.02
2023-02-07T21:11:55.979Z,17.00
2023-02-07T21:14:28.756Z,15.73
2023-02-07T21:19:27.570Z,17.05
2023-02-07T21:21:56.495Z,16.38
2023-02-07T21:24:25.437Z,16.08
2023-02-07T21:26:55.972Z,17.15
2023-02-07T21:29:25.065Z,16.85
2023-02-07T21:31:54.355Z,16.90
2023-02-07T21:34:23.264Z,16.92
2023-02-07T21:36:52.048Z,17.33
2023-02-07T21:39:21.317Z,17.88
2023-02-07T21:41:50.026Z,16.85
2023-02-07T21:44:22.047Z,17.20
2023-02-07T21:46:52.626Z,18.25
2023-02-07T21:49:21.619Z,17.83
2023-02-07T21:51:55.242Z,17.13
2023-02-07T21:54:24.074Z,18.20
2023-02-07T21:56:53.569Z,18.13
2023-02-07T21:59:25.109Z,19.67
2023-02-07T22:01:55.163Z,18.88
2023-02-07T22:04:25.480Z,19.08
2023-02-07T22:06:54.278Z,17.73
2023-02-07T22:09:25.062Z,18.08
2023-02-07T22:11:55.477Z,17.38
2023-02-07T22:14:26.753Z,15.82
2023-02-07T22:16:56.973Z,17.35
2023-02-07T22:19:26.372Z,18.20
2023-02-07T22:21:55.074Z,18.85
2023-02-07T22:24:23.764Z,18.63
2023-02-07T22:26:52.456Z,18.08
2023-02-07T22:29:21.132Z,18.00
2023-02-07T22:31:50.001Z,18.23
2023-02-07T22:34:18.859Z,18.40
2023-02-07T22:36:48.041Z,18.13
2023-02-07T22:39:18.570Z,17.27
2023-02-07T22:41:48.206Z,18.30
2023-02-07T22:44:16.981Z,17.15
2023-02-07T22:46:45.744Z,17.92
2023-02-07T22:49:14.410Z,19.83
2023-02-07T22:51:43.954Z,20.02
2023-02-07T22:54:17.662Z,21.48
2023-02-07T22:56:46.580Z,20.70
2023-02-07T22:59:15.520Z,23.10
2023-02-07T23:01:46.559Z,23.95
2023-02-07T23:04:18.283Z,23.05
2023-02-07T23:06:48.495Z,23.08
2023-02-07T23:09:17.286Z,25.77
2023-02-07T23:11:46.050Z,23.58
2023-02-07T23:14:15.270Z,24.60
2023-02-07T23:16:44.473Z,26.35
2023-02-07T23:19:16.973Z,27.85
2023-02-07T23:21:46.003Z,26.27
2023-02-07T23:24:14.714Z,25.48
2023-02-07T23:26:43.421Z,29.05
2023-02-07T23:29:12.089Z,28.17
2023-02-07T23:31:40.914Z,28.88
2023-02-07T23:34:11.721Z,27.27
2023-02-07T23:36:41.060Z,48.75
2023-02-07T23:39:10.153Z,37.08
2023-02-07T23:41:39.797Z,31.05
2023-02-07T23:44:09.471Z,29.63
2023-02-07T23:46:38.385Z,30.02
2023-02-07T23:49:07.752Z,32.88
2023-02-07T23:51:36.436Z,32.40
2023-02-07T23:54:05.608Z,32.28
2023-02-07T23:56:34.932Z,33.08
2023-02-07T23:59:03.605Z,32.75
